Time;durP1;ratioP1;P1;durP2;ratioP2;P2;SDS_P1;SDS_P2;PMS_P1;PMS_P2;Temp;Humidity;BMP_temperature;BMP_pressure;BME280_temperature;BME280_humidity;BME280_pressure;Samples;Min_cycle;Max_cycle;Signal;HPM_P1;HPM_P2
2022/04/06 00:02:21;;;;;;;4.70;4.20;;;;;;;9.38;87.31;96120.47;5046757;28;20215;-58
2022/04/06 00:04:49;;;;;;;4.33;3.93;;;;;;;9.39;86.83;96128.22;5044898;28;20596;-59
2022/04/06 00:07:16;;;;;;;4.00;3.70;;;;;;;9.40;86.35;96127.25;5045973;28;20309;-58
2022/04/06 00:09:43;;;;;;;3.93;3.60;;;;;;;9.41;86.33;96120.19;5045284;28;20242;-57
2022/04/06 00:12:09;;;;;;;3.90;3.50;;;;;;;9.37;86.33;96124.94;5043892;28;20211;-57
2022/04/06 00:14:36;;;;;;;3.87;3.50;;;;;;;9.38;86.70;96120.47;5043468;28;20236;-58
2022/04/06 00:17:05;;;;;;;3.97;3.67;;;;;;;9.35;86.15;96118.94;5041867;28;20199;-57
2022/04/06 00:19:32;;;;;;;4.03;3.63;;;;;;;9.38;86.08;96120.47;5043216;28;20207;-57
2022/04/06 00:22:00;;;;;;;5.93;3.80;;;;;;;9.29;86.10;96116.06;5042543;28;20195;-57
2022/04/06 00:24:27;;;;;;;4.17;3.87;;;;;;;9.22;86.96;96109.72;5042811;28;20225;-57
2022/04/06 00:26:54;;;;;;;5.00;3.70;;;;;;;9.23;87.32;96114.03;5042361;28;20223;-58
2022/04/06 00:29:21;;;;;;;4.47;4.17;;;;;;;9.25;87.35;96114.69;5043084;28;20730;-57
2022/04/06 00:31:47;;;;;;;4.23;3.93;;;;;;;9.21;87.49;96119.44;5043160;28;20207;-58
2022/04/06 00:34:14;;;;;;;4.60;4.30;;;;;;;9.20;88.33;96114.34;5043278;28;20223;-56
2022/04/06 00:36:40;;;;;;;4.27;3.97;;;;;;;9.26;87.61;96116.38;5045286;28;20195;-57
2022/04/06 00:39:08;;;;;;;4.17;3.87;;;;;;;9.18;88.49;96111.00;5065156;28;20206;-56
2022/04/06 00:41:35;;;;;;;4.37;3.97;;;;;;;9.19;88.36;96116.13;5065281;28;20188;-57
2022/04/06 00:44:13;;;;;;;3.43;3.23;;;;;;;9.23;88.05;96106.97;5061475;28;20237;-57
2022/04/06 00:46:40;;;;;;;3.70;3.40;;;;;;;9.26;87.78;96111.09;5043787;28;20214;-56
2022/04/06 00:49:11;;;;;;;4.23;3.80;;;;;;;9.18;88.56;96105.72;5043248;28;20191;-58
2022/04/06 00:51:38;;;;;;;4.27;3.97;;;;;;;9.19;88.54;96110.03;5049599;28;20222;-57
2022/04/06 00:54:05;;;;;;;4.13;3.70;;;;;;;9.19;88.67;96105.59;5054236;28;20192;-59
2022/04/06 00:56:33;;;;;;;5.40;4.20;;;;;;;9.16;88.46;96102.41;5042890;28;20207;-57
2022/04/06 00:59:00;;;;;;;3.93;3.63;;;;;;;9.15;88.24;96100.75;5042229;28;20215;-57
2022/04/06 01:01:27;;;;;;;4.20;3.80;;;;;;;9.11;88.63;96102.00;5042513;28;20199;-58
2022/04/06 01:03:53;;;;;;;4.70;4.30;;;;;;;9.09;88.76;96103.97;5042430;28;20206;-58
2022/04/06 01:06:20;;;;;;;4.10;3.80;;;;;;;9.06;89.54;96099.00;5043175;28;20223;-57
2022/04/06 01:08:47;;;;;;;4.27;3.87;;;;;;;9.06;89.95;96099.00;5042357;28;20249;-58
2022/04/06 01:11:14;;;;;;;3.77;3.47;;;;;;;8.99;90.64;96101.41;5043466;28;20210;-57
2022/04/06 01:13:41;;;;;;;4.57;4.27;;;;;;;8.99;90.60;96101.41;5045820;28;20216;-56
2022/04/06 01:16:08;;;;;;;4.53;3.90;;;;;;;8.99;90.59;96102.22;5044200;28;20522;-57
2022/04/06 01:18:36;;;;;;;5.53;4.50;;;;;;;9.00;89.67;96101.22;5042523;28;20203;-57
2022/04/06 01:21:02;;;;;;;4.63;4.07;;;;;;;9.02;89.38;96093.19;5044688;28;20301;-57
2022/04/06 01:23:30;;;;;;;3.47;3.27;;;;;;;9.04;89.11;96093.03;5045454;28;20199;-58
2022/04/06 01:25:57;;;;;;;3.40;3.10;;;;;;;9.03;88.95;96094.84;5048072;28;20258;-58
2022/04/06 01:28:24;;;;;;;3.87;3.57;;;;;;;8.99;89.15;96089.03;5042541;28;20249;-59
2022/04/06 01:30:50;;;;;;;5.20;3.53;;;;;;;9.02;88.99;96084.44;5042839;28;20214;-57
2022/04/06 01:33:17;;;;;;;3.63;3.33;;;;;;;8.98;89.44;96082.09;5055177;28;20191;-56
2022/04/06 01:35:43;;;;;;;3.93;3.63;;;;;;;8.96;90.38;96078.75;5042611;28;20199;-58
2022/04/06 01:38:10;;;;;;;4.03;3.63;;;;;;;8.98;90.55;96083.91;5044110;28;20204;-57
2022/04/06 01:40:38;;;;;;;3.80;3.50;;;;;;;8.95;90.61;96085.03;5052389;28;20176;-57
2022/04/06 01:43:05;;;;;;;4.20;3.90;;;;;;;9.00;89.89;96084.56;5061931;28;20195;-57
2022/04/06 01:45:31;;;;;;;4.17;3.77;;;;;;;9.06;89.55;96088.44;5063665;28;20189;-57
2022/04/06 01:48:00;;;;;;;3.60;3.40;;;;;;;8.99;89.96;96083.78;5051424;28;20878;-57
2022/04/06 01:53:19;;;;;;;4.30;3.90;;;;;;;8.96;90.08;96080.59;5032618;28;20195;-57
2022/04/06 01:55:47;;;;;;;3.87;3.57;;;;;;;8.99;90.21;96073.22;5043494;28;20196;-57
2022/04/06 01:58:13;;;;;;;4.03;3.67;;;;;;;9.05;89.77;96070.97;5042943;28;20330;-58
2022/04/06 02:00:40;;;;;;;4.20;3.90;;;;;;;9.08;88.65;96070.66;5043034;28;20207;-58
2022/04/06 02:03:09;;;;;;;4.43;3.83;;;;;;;9.05;89.02;96076.22;5044445;28;20199;-58
2022/04/06 02:05:36;;;;;;;5.67;3.80;;;;;;;8.98;90.00;96070.72;5046823;28;20208;-57
2022/04/06 02:08:02;;;;;;;4.30;4.00;;;;;;;9.00;89.79;96066.13;5046988;28;20238;-57
2022/04/06 02:10:29;;;;;;;4.47;4.03;;;;;;;9.00;89.43;96069.59;5046634;28;20200;-57
2022/04/06 02:12:58;;;;;;;4.40;4.10;;;;;;;8.95;89.66;96071.84;5047628;28;20215;-57
2022/04/06 02:15:25;;;;;;;4.50;4.10;;;;;;;8.96;89.82;96065.59;5046960;28;20214;-57
2022/04/06 02:17:52;;;;;;;4.17;3.77;;;;;;;8.95;90.09;96063.94;5047133;28;20203;-57
2022/04/06 02:20:18;;;;;;;4.73;4.23;;;;;;;8.96;89.94;96062.94;5046291;28;20206;-57
2022/04/06 02:22:45;;;;;;;4.90;4.50;;;;;;;8.99;89.61;96061.84;5045862;28;20203;-57
2022/04/06 02:25:12;;;;;;;4.67;3.93;;;;;;;8.96;89.91;96059.50;5045909;28;20716;-58
2022/04/06 02:27:44;;;;;;;4.30;4.00;;;;;;;8.93;89.85;96049.22;5044463;28;20228;-57
2022/04/06 02:30:13;;;;;;;4.70;4.30;;;;;;;8.90;90.43;96049.53;5044744;28;20195;-57
2022/04/06 02:32:40;;;;;;;5.13;4.30;;;;;;;8.92;89.68;96050.22;5045434;28;20595;-56
2022/04/06 02:35:08;;;;;;;4.40;4.10;;;;;;;8.90;90.24;96049.53;5045647;28;20200;-57
2022/04/06 02:37:34;;;;;;;4.20;3.90;;;;;;;8.91;89.34;96048.56;5044711;28;20195;-58
2022/04/06 02:40:01;;;;;;;4.53;4.13;;;;;;;8.90;89.39;96044.25;5044649;28;20206;-57
2022/04/06 02:42:28;;;;;;;4.60;4.17;;;;;;;8.92;88.88;96039.69;5046004;28;20195;-58
2022/04/06 02:44:54;;;;;;;5.80;4.00;;;;;;;8.89;89.47;96038.16;5043829;28;20199;-57
2022/04/06 02:47:22;;;;;;;4.17;3.87;;;;;;;8.82;90.35;96034.44;5044189;28;20223;-57
2022/04/06 02:49:48;;;;;;;5.70;4.00;;;;;;;8.80;90.75;96033.75;5044513;28;20203;-58
2022/04/06 02:52:15;;;;;;;3.87;3.57;;;;;;;8.86;90.26;96029.69;5044995;28;20199;-57
2022/04/06 02:54:41;;;;;;;4.53;4.13;;;;;;;8.86;90.31;96035.81;5044309;28;20203;-58
2022/04/06 02:57:08;;;;;;;5.10;3.90;;;;;;;8.78;91.77;96027.81;5043976;28;20218;-57
2022/04/06 02:59:34;;;;;;;4.07;3.77;;;;;;;8.77;90.60;96027.97;5043622;28;20207;-60
2022/04/06 03:02:01;;;;;;;4.70;4.20;;;;;;;8.81;90.95;96027.53;5064311;28;20210;-58
2022/04/06 03:04:28;;;;;;;5.13;3.90;;;;;;;8.79;90.20;96018.91;5064394;28;20200;-58
2022/04/06 03:06:56;;;;;;;3.97;3.60;;;;;;;8.80;89.78;96015.31;5060027;28;20211;-57
2022/04/06 03:09:23;;;;;;;4.37;3.50;;;;;;;8.81;89.74;96009.06;5046375;28;20220;-58
2022/04/06 03:11:49;;;;;;;4.10;3.80;;;;;;;8.75;89.69;96007.00;5045072;28;20212;-58
2022/04/06 03:14:15;;;;;;;4.47;3.90;;;;;;;8.79;89.79;96005.72;5044512;28;20211;-57
2022/04/06 03:16:42;;;;;;;3.90;3.60;;;;;;;8.70;90.32;96005.81;5044318;28;20211;-58
2022/04/06 03:19:08;;;;;;;4.43;4.03;;;;;;;8.69;91.18;96002.31;5044023;28;20294;-57
2022/04/06 03:21:36;;;;;;;3.83;3.53;;;;;;;8.73;90.50;95998.44;5043770;28;20247;-58
2022/04/06 03:24:03;;;;;;;3.83;3.53;;;;;;;8.72;91.05;95993.28;5042886;28;20209;-59
2022/04/06 03:26:29;;;;;;;4.67;3.63;;;;;;;8.70;90.41;95993.44;5043285;28;20243;-58
2022/04/06 03:28:55;;;;;;;3.97;3.63;;;;;;;8.67;90.91;95990.28;5044432;28;20224;-58
2022/04/06 03:31:22;;;;;;;3.80;3.40;;;;;;;8.60;92.12;95997.94;5043874;28;20524;-57
2022/04/06 03:33:48;;;;;;;3.53;3.30;;;;;;;8.62;91.46;95995.97;5043099;28;20203;-57
2022/04/06 03:36:15;;;;;;;3.87;3.57;;;;;;;8.65;91.46;95995.69;5043877;28;20203;-58
2022/04/06 03:38:42;;;;;;;4.27;3.87;;;;;;;8.71;91.23;95994.28;5043358;28;20203;-58
2022/04/06 03:41:10;;;;;;;3.80;3.50;;;;;;;8.73;90.80;95992.31;5043462;28;20211;-57
2022/04/06 03:43:37;;;;;;;3.90;3.40;;;;;;;8.70;90.17;95988.19;5043686;28;21388;-57
2022/04/06 03:46:05;;;;;;;4.10;3.80;;;;;;;8.74;91.05;95994.00;5043488;28;20673;-57
2022/04/06 03:48:33;;;;;;;4.87;4.47;;;;;;;8.74;90.72;95984.28;5043813;28;20246;-56
2022/04/06 03:51:00;;;;;;;4.37;4.00;;;;;;;8.72;91.01;95991.50;5042884;28;20211;-57
2022/04/06 03:53:26;;;;;;;3.90;3.60;;;;;;;8.73;90.53;95987.88;5042568;28;20192;-56
2022/04/06 03:55:54;;;;;;;5.07;3.73;;;;;;;8.69;90.70;95981.25;5043451;28;20204;-58
2022/04/06 03:58:22;;;;;;;4.17;3.80;;;;;;;8.72;89.85;95985.38;5043709;28;20200;-57
2022/04/06 04:00:48;;;;;;;4.17;3.87;;;;;;;8.69;89.87;95980.41;5043123;28;20203;-57
2022/04/06 04:03:14;;;;;;;4.23;3.93;;;;;;;8.72;90.12;95980.94;5043183;28;20644;-58
2022/04/06 04:05:41;;;;;;;4.30;4.00;;;;;;;8.68;90.22;95973.50;5043731;28;20211;-57
2022/04/06 04:08:08;;;;;;;6.43;3.57;;;;;;;8.68;90.13;95971.66;5043301;28;20227;-57
2022/04/06 04:10:34;;;;;;;4.00;3.70;;;;;;;8.69;90.24;95975.13;5042978;28;20203;-57
2022/04/06 04:13:02;;;;;;;4.70;4.23;;;;;;;8.68;89.96;95976.13;5043512;28;21292;-57
2022/04/06 04:15:29;;;;;;;4.07;3.67;;;;;;;8.68;90.02;95971.66;5043151;28;20200;-58
2022/04/06 04:17:56;;;;;;;4.10;3.80;;;;;;;8.63;91.15;95971.31;5043851;28;20632;-57
2022/04/06 04:20:23;;;;;;;3.70;3.40;;;;;;;8.61;91.33;95967.97;5043665;28;20199;-58
2022/04/06 04:22:50;;;;;;;4.13;3.83;;;;;;;8.61;91.86;95975.06;5043475;28;20204;-58
2022/04/06 04:25:16;;;;;;;5.53;4.23;;;;;;;8.57;92.30;95971.06;5042594;28;20219;-57
2022/04/06 04:27:42;;;;;;;4.40;3.87;;;;;;;8.61;91.41;95962.69;5044037;28;20237;-58
2022/04/06 04:30:11;;;;;;;4.90;3.97;;;;;;;8.63;91.74;95955.47;5048277;28;20199;-57
2022/04/06 04:32:38;;;;;;;3.93;3.70;;;;;;;8.67;90.80;95956.84;5054365;28;20208;-57
2022/04/06 04:35:06;;;;;;;4.27;3.87;;;;;;;8.66;90.80;95955.19;5044921;28;20203;-57
2022/04/06 04:37:33;;;;;;;3.80;3.50;;;;;;;8.64;90.44;95957.16;5042549;28;20195;-57
2022/04/06 04:39:59;;;;;;;4.50;3.70;;;;;;;8.61;91.18;95956.63;5042464;28;20200;-57
2022/04/06 04:42:27;;;;;;;4.27;3.87;;;;;;;8.60;91.08;95960.22;5041407;28;20207;-57
2022/04/06 04:44:54;;;;;;;4.60;4.20;;;;;;;8.53;91.71;95953.88;5042891;28;20218;-57
2022/04/06 04:47:21;;;;;;;4.90;4.13;;;;;;;8.54;91.35;95952.91;5043176;28;20214;-58
2022/04/06 04:49:48;;;;;;;4.50;4.10;;;;;;;8.58;91.97;95952.44;5041877;28;20227;-57
2022/04/06 04:52:14;;;;;;;4.50;4.10;;;;;;;8.61;91.27;95948.72;5043305;28;20808;-57
2022/04/06 04:54:41;;;;;;;4.33;3.90;;;;;;;8.55;91.80;95944.00;5042545;28;20203;-57
2022/04/06 04:57:07;;;;;;;4.57;4.17;;;;;;;8.58;91.78;95949.81;5042143;28;20219;-57
2022/04/06 04:59:34;;;;;;;4.13;3.63;;;;;;;8.61;91.57;95944.25;5042775;28;20601;-58
2022/04/06 05:02:00;;;;;;;4.17;3.87;;;;;;;8.60;91.25;95947.03;5042733;28;20196;-57
2022/04/06 05:04:28;;;;;;;5.73;4.40;;;;;;;8.55;92.02;95952.75;5041945;28;20205;-57
2022/04/06 05:06:54;;;;;;;4.60;4.20;;;;;;;8.55;92.10;95952.75;5043594;28;20212;-58
2022/04/06 05:09:21;;;;;;;7.30;4.63;;;;;;;8.60;91.07;95950.50;5042521;28;20544;-58
2022/04/06 05:11:49;;;;;;;4.53;4.10;;;;;;;8.59;90.45;95950.66;5042590;28;20199;-58
2022/04/06 05:14:15;;;;;;;5.77;4.37;;;;;;;8.60;90.81;95953.16;5042612;28;20217;-57
2022/04/06 05:16:41;;;;;;;4.83;4.43;;;;;;;8.60;90.92;95949.69;5043281;28;20208;-57
2022/04/06 05:19:08;;;;;;;5.60;4.07;;;;;;;8.59;91.12;95946.22;5043044;28;20203;-57
2022/04/06 05:21:36;;;;;;;4.80;4.20;;;;;;;8.58;90.29;95952.44;5045368;28;20211;-57
2022/04/06 05:24:04;;;;;;;5.93;4.83;;;;;;;8.64;90.51;95951.06;5053482;28;20195;-59
2022/04/06 05:26:31;;;;;;;5.03;4.53;;;;;;;8.67;90.13;95945.47;5056982;28;20241;-60
2022/04/06 05:28:57;;;;;;;4.20;3.90;;;;;;;8.69;90.09;95957.53;5056070;28;20235;-57
2022/04/06 05:31:24;;;;;;;5.47;4.93;;;;;;;8.72;90.25;95956.38;5052924;28;20183;-56
2022/04/06 05:33:50;;;;;;;5.10;4.60;;;;;;;8.74;89.62;95954.44;5065835;28;20179;-56
2022/04/06 05:36:17;;;;;;;4.77;4.37;;;;;;;8.74;90.12;95946.53;5073346;28;20198;-57
2022/04/06 05:38:45;;;;;;;5.20;4.70;;;;;;;8.74;90.04;95944.75;5062334;28;20602;-58
2022/04/06 05:41:11;;;;;;;4.63;4.33;;;;;;;8.81;89.77;95942.34;5045987;28;20222;-57
2022/04/06 05:43:38;;;;;;;4.97;4.33;;;;;;;8.86;90.34;95951.44;5046504;28;20269;-57
2022/04/06 05:46:04;;;;;;;5.43;4.73;;;;;;;8.93;89.65;95949.84;5046184;28;20215;-57
2022/04/06 05:48:31;;;;;;;4.13;3.83;;;;;;;8.95;89.85;95945.28;5046268;28;20236;-57
2022/04/06 05:50:57;;;;;;;4.90;4.50;;;;;;;9.04;89.46;95954.09;5045644;28;20254;-57
2022/04/06 05:53:24;;;;;;;4.83;4.30;;;;;;;9.11;88.53;95949.03;5045492;28;20680;-58
2022/04/06 05:55:51;;;;;;;4.70;4.30;;;;;;;9.15;88.73;95960.94;5046542;28;20544;-57
2022/04/06 05:58:18;;;;;;;4.47;4.07;;;;;;;9.24;88.15;95952.97;5047510;28;20206;-57
2022/04/06 06:00:44;;;;;;;7.17;4.80;;;;;;;9.30;87.29;95959.44;5047729;28;20551;-58
2022/04/06 06:03:11;;;;;;;6.43;4.60;;;;;;;9.31;87.57;95951.38;5046010;28;20242;-57
2022/04/06 06:05:37;;;;;;;5.60;4.93;;;;;;;9.40;87.54;95952.25;5048866;28;20211;-57
2022/04/06 06:08:05;;;;;;;5.23;4.83;;;;;;;9.48;86.76;95958.44;5048276;28;20663;-58
2022/04/06 06:10:32;;;;;;;6.80;4.97;;;;;;;9.50;86.31;95951.19;5046719;28;20268;-57
2022/04/06 06:13:00;;;;;;;5.07;4.60;;;;;;;9.46;87.33;95954.28;5047078;28;20203;-58
2022/04/06 06:15:26;;;;;;;5.47;4.93;;;;;;;9.60;86.83;95953.72;5046644;28;20542;-56
2022/04/06 06:17:54;;;;;;;6.47;5.37;;;;;;;9.64;85.82;95957.72;5044883;28;20211;-57
2022/04/06 06:20:21;;;;;;;5.00;4.50;;;;;;;9.72;85.54;95951.69;5044847;28;20195;-56
2022/04/06 06:22:47;;;;;;;5.77;4.57;;;;;;;9.82;85.71;95949.75;5046013;28;20212;-58
2022/04/06 06:25:13;;;;;;;5.00;4.50;;;;;;;9.92;84.79;95950.47;5044894;28;20210;-57
2022/04/06 06:27:40;;;;;;;5.13;4.53;;;;;;;9.97;83.93;95948.22;5044299;28;20249;-58
2022/04/06 06:30:11;;;;;;;5.80;4.60;;;;;;;10.06;83.53;95951.75;5045569;28;20230;-57
2022/04/06 06:32:38;;;;;;;10.23;4.77;;;;;;;10.08;82.02;95953.25;5044811;28;20191;-58
2022/04/06 06:35:06;;;;;;;9.73;5.30;;;;;;;10.11;82.48;95947.63;5044728;28;20207;-58
2022/04/06 06:37:32;;;;;;;5.37;4.97;;;;;;;10.20;81.33;95953.84;5045172;28;20206;-58
2022/04/06 06:39:59;;;;;;;5.30;4.80;;;;;;;10.30;81.80;95954.53;5045650;28;20200;-56
2022/04/06 06:42:25;;;;;;;5.57;5.03;;;;;;;10.43;81.49;95949.63;5044401;28;20563;-55
2022/04/06 06:44:53;;;;;;;5.83;5.33;;;;;;;10.53;81.88;95955.63;5044064;28;20207;-57
2022/04/06 06:47:20;;;;;;;5.37;4.87;;;;;;;10.45;80.52;95947.69;5045242;28;20203;-57
2022/04/06 06:49:47;;;;;;;5.40;4.90;;;;;;;10.51;79.61;95951.50;5044110;28;20238;-58
2022/04/06 06:52:14;;;;;;;6.60;5.20;;;;;;;10.68;80.35;95946.09;5045468;28;20206;-57
2022/04/06 06:54:40;;;;;;;6.73;5.50;;;;;;;10.77;80.18;95953.06;5046042;28;20203;-57
2022/04/06 06:57:07;;;;;;;5.40;4.87;;;;;;;10.86;79.64;95957.41;5045541;28;20218;-57
2022/04/06 06:59:33;;;;;;;7.37;5.40;;;;;;;10.81;78.34;95953.56;5047157;28;20210;-58
2022/04/06 07:01:59;;;;;;;6.07;5.47;;;;;;;10.92;78.74;95951.44;5048789;28;20218;-57
2022/04/06 07:04:27;;;;;;;5.20;4.77;;;;;;;11.06;78.39;95952.63;5048581;28;20265;-58
2022/04/06 07:06:54;;;;;;;6.03;5.50;;;;;;;11.01;78.49;95954.94;5051413;28;20203;-57
2022/04/06 07:09:20;;;;;;;6.33;5.60;;;;;;;10.98;78.20;95940.22;5049842;28;20234;-58
2022/04/06 07:11:47;;;;;;;6.17;5.27;;;;;;;11.04;77.95;95948.50;5045997;28;20530;-57
2022/04/06 07:14:13;;;;;;;5.10;4.70;;;;;;;11.21;77.67;95947.53;5046017;28;20585;-59
2022/04/06 07:16:39;;;;;;;11.13;6.33;;;;;;;11.34;76.40;95945.22;5045700;28;20210;-58
2022/04/06 07:19:06;;;;;;;7.07;5.10;;;;;;;11.45;76.73;95943.06;5047281;28;20206;-60
2022/04/06 07:21:34;;;;;;;7.10;5.07;;;;;;;11.52;76.33;95937.94;5046260;28;20211;-57
2022/04/06 07:24:02;;;;;;;7.47;5.20;;;;;;;11.49;75.38;95943.56;5045633;28;20232;-56
2022/04/06 07:26:28;;;;;;;7.33;5.10;;;;;;;11.56;75.86;95941.91;5046156;28;20326;-57
2022/04/06 07:28:55;;;;;;;6.30;5.00;;;;;;;11.75;75.15;95938.97;5043853;28;20698;-58
2022/04/06 07:31:21;;;;;;;6.57;5.63;;;;;;;11.58;74.43;95936.47;5044628;28;20207;-57
2022/04/06 07:33:48;;;;;;;7.27;5.80;;;;;;;11.56;74.20;95935.78;5044063;28;20210;-57
2022/04/06 07:36:14;;;;;;;8.07;5.93;;;;;;;11.84;73.48;95942.41;5043793;28;20230;-57
2022/04/06 07:38:42;;;;;;;7.40;5.50;;;;;;;11.92;73.24;95937.94;5043521;28;20211;-57
2022/04/06 07:41:09;;;;;;;7.30;5.43;;;;;;;11.90;73.02;95937.28;5044189;28;20204;-57
2022/04/06 07:43:36;;;;;;;5.57;5.07;;;;;;;11.88;73.01;95935.78;5044145;28;20208;-57
2022/04/06 07:46:02;;;;;;;5.30;4.67;;;;;;;12.02;73.78;95931.63;5043754;28;20211;-57
2022/04/06 07:48:30;;;;;;;5.67;5.17;;;;;;;12.04;71.71;95932.31;5043676;28;20203;-58
2022/04/06 07:50:57;;;;;;;6.90;5.67;;;;;;;12.11;72.97;95931.47;5044068;28;20230;-57
2022/04/06 07:53:23;;;;;;;5.90;5.30;;;;;;;12.20;72.70;95927.78;5060042;28;20198;-57
2022/04/06 07:55:51;;;;;;;6.63;5.37;;;;;;;12.43;72.05;95922.56;5060742;28;20183;-57
2022/04/06 07:58:19;;;;;;;5.20;4.80;;;;;;;12.40;70.41;95917.59;5057829;28;20199;-57
2022/04/06 08:00:45;;;;;;;5.70;5.20;;;;;;;12.47;70.41;95926.50;5044560;28;20196;-57
2022/04/06 08:03:12;;;;;;;5.13;4.73;;;;;;;12.45;71.26;95923.22;5044921;28;20215;-58
2022/04/06 08:05:38;;;;;;;9.30;5.23;;;;;;;12.53;70.92;95912.56;5044836;28;20200;-58
2022/04/06 08:08:05;;;;;;;5.50;4.30;;;;;;;12.78;70.77;95911.47;5043397;28;20207;-57
2022/04/06 08:10:32;;;;;;;6.37;4.70;;;;;;;12.70;69.21;95914.16;5042364;28;20676;-57
2022/04/06 08:13:00;;;;;;;6.10;4.63;;;;;;;12.70;68.58;95908.84;5041855;28;20643;-58
2022/04/06 08:15:28;;;;;;;5.13;4.70;;;;;;;12.92;70.06;95912.53;5043558;28;20191;-57
2022/04/06 08:17:54;;;;;;;5.87;5.37;;;;;;;12.86;69.15;95916.69;5043215;28;20221;-57
2022/04/06 08:20:21;;;;;;;5.93;4.90;;;;;;;13.07;69.19;95920.56;5042991;28;20204;-58
2022/04/06 08:22:49;;;;;;;5.93;4.50;;;;;;;13.34;69.27;95917.41;5042834;28;20207;-58
2022/04/06 08:25:16;;;;;;;6.53;4.60;;;;;;;13.30;66.55;95913.47;5043352;28;20196;-57
2022/04/06 08:27:42;;;;;;;4.50;4.10;;;;;;;13.70;66.87;95914.97;5042474;28;20844;-60
2022/04/06 08:30:12;;;;;;;6.57;4.10;;;;;;;13.61;65.05;95908.88;5042813;28;20699;-58
2022/04/06 08:32:39;;;;;;;4.87;4.40;;;;;;;13.77;64.61;95907.94;5042328;28;20663;-58
2022/04/06 08:35:08;;;;;;;4.37;4.07;;;;;;;14.19;62.02;95902.00;5042803;28;20195;-58
2022/04/06 08:37:34;;;;;;;4.37;4.07;;;;;;;14.49;61.88;95894.88;5043305;28;20230;-57
2022/04/06 08:40:01;;;;;;;4.43;3.73;;;;;;;14.65;62.51;95899.97;5041824;28;20663;-57
2022/04/06 08:42:31;;;;;;;4.10;3.70;;;;;;;14.64;62.44;95907.13;5042441;28;20529;-58
2022/04/06 08:44:58;;;;;;;3.80;3.57;;;;;;;14.71;61.32;95902.72;5042536;28;20537;-57
2022/04/06 08:47:26;;;;;;;3.93;3.63;;;;;;;14.69;61.37;95904.75;5043813;28;20655;-57
2022/04/06 08:49:53;;;;;;;6.07;3.73;;;;;;;14.81;61.63;95897.94;5042508;28;20223;-57
2022/04/06 08:52:20;;;;;;;4.10;3.70;;;;;;;15.05;61.12;95901.28;5042616;28;20203;-58
2022/04/06 08:54:46;;;;;;;4.10;3.80;;;;;;;15.56;59.97;95904.66;5042546;28;20211;-58
2022/04/06 08:57:13;;;;;;;4.50;4.20;;;;;;;16.22;56.03;95898.00;5044046;28;20223;-58
2022/04/06 08:59:39;;;;;;;4.53;4.23;;;;;;;16.73;56.80;95903.81;5044497;28;20199;-57
2022/04/06 09:02:06;;;;;;;4.53;4.13;;;;;;;17.01;52.51;95893.88;5043668;28;20214;-56
2022/04/06 09:04:35;;;;;;;4.88;4.00;;;;;;;17.34;52.20;95891.28;5044633;28;20211;-57
2022/04/06 09:07:08;;;;;;;4.50;4.10;;;;;;;17.64;51.69;95879.19;5045784;28;20207;-58
2022/04/06 09:09:36;;;;;;;4.70;4.25;;;;;;;18.28;49.42;95883.91;5059903;28;20278;-57
2022/04/06 09:12:06;;;;;;;4.15;3.83;;;;;;;18.48;48.25;95881.16;5070925;28;20191;-58
2022/04/06 09:14:33;;;;;;;3.70;3.50;;;;;;;18.91;49.32;95876.91;5066851;28;20183;-57
2022/04/06 09:17:04;;;;;;;4.28;3.50;;;;;;;19.02;46.94;95884.28;5041784;28;20199;-56
2022/04/06 09:19:30;;;;;;;3.97;3.67;;;;;;;19.36;46.39;95872.31;5042981;28;20204;-57
2022/04/06 09:21:58;;;;;;;3.90;3.60;;;;;;;19.33;45.33;95864.72;5042406;28;20215;-57
2022/04/06 09:24:26;;;;;;;4.20;3.40;;;;;;;19.11;45.20;95866.09;5044829;28;20606;-58
2022/04/06 09:26:57;;;;;;;4.30;3.97;;;;;;;18.68;46.10;95869.38;5043762;28;20300;-57
2022/04/06 09:29:23;;;;;;;4.53;4.05;;;;;;;19.04;48.08;95866.13;5042292;28;20255;-57
2022/04/06 09:31:51;;;;;;;3.92;3.63;;;;;;;19.54;45.87;95861.72;5043793;28;20212;-57
2022/04/06 09:34:21;;;;;;;3.67;3.38;;;;;;;19.23;46.29;95854.47;5044826;28;20203;-58
2022/04/06 09:36:47;;;;;;;3.58;3.28;;;;;;;19.38;46.09;95848.78;5042966;28;20773;-57
2022/04/06 09:39:15;;;;;;;3.85;3.15;;;;;;;19.61;45.40;95854.44;5043761;28;20579;-57
2022/04/06 09:42:00;;;;;;;3.80;3.40;;;;;;;19.82;46.06;95851.38;5044767;28;20218;-58
2022/04/06 09:50:12;;;;;;;4.78;3.30;;;;;;;19.43;45.35;95837.47;5068124;28;20237;-57
2022/04/06 09:52:39;;;;;;;3.95;3.50;;;;;;;20.15;44.34;95842.22;5049002;28;20509;-57
2022/04/06 09:55:09;;;;;;;3.50;3.30;;;;;;;20.17;42.77;95837.41;5042646;28;20207;-56
2022/04/06 09:57:41;;;;;;;2.90;2.80;;;;;;;20.46;43.27;95834.03;5042052;28;20204;-57
2022/04/06 10:00:09;;;;;;;4.00;3.70;;;;;;;20.08;41.71;95831.53;5042012;28;20228;-57
2022/04/06 10:02:37;;;;;;;3.60;3.30;;;;;;;20.16;42.92;95817.81;5042296;28;20204;-60
2022/04/06 10:05:04;;;;;;;3.38;3.17;;;;;;;20.55;41.98;95830.00;5041599;28;20219;-60
2022/04/06 10:07:32;;;;;;;4.10;3.70;;;;;;;20.41;42.45;95815.09;5042177;28;20238;-57
2022/04/06 10:10:00;;;;;;;3.40;3.20;;;;;;;20.40;42.31;95816.16;5043512;28;20227;-58
2022/04/06 10:12:29;;;;;;;4.00;3.70;;;;;;;20.62;41.10;95809.25;5071470;28;20172;-57
2022/04/06 10:14:55;;;;;;;3.70;3.40;;;;;;;20.97;41.61;95803.25;5067168;28;20204;-57
2022/04/06 10:17:23;;;;;;;3.63;3.42;;;;;;;20.31;41.04;95804.06;5058443;28;20204;-59
2022/04/06 10:19:54;;;;;;;7.75;3.30;;;;;;;20.20;41.66;95802.06;5040804;28;20625;-57
2022/04/06 10:22:24;;;;;;;3.80;3.58;;;;;;;20.60;40.99;95797.94;5041730;28;20204;-58
2022/04/06 10:24:55;;;;;;;3.80;3.60;;;;;;;19.95;43.94;95793.25;5043600;28;20218;-58
2022/04/06 10:27:26;;;;;;;3.78;3.50;;;;;;;20.25;43.44;95788.81;5045133;28;20219;-59
2022/04/06 10:30:15;;;;;;;3.53;3.22;;;;;;;20.54;40.76;95782.72;5043341;28;20298;-56
2022/04/06 10:32:42;;;;;;;3.25;3.03;;;;;;;21.00;39.82;95773.22;5044983;28;20206;-56
2022/04/06 10:35:19;;;;;;;3.40;3.20;;;;;;;20.78;41.46;95768.34;5045983;28;20203;-56
2022/04/06 10:37:51;;;;;;;4.10;3.55;;;;;;;21.13;41.02;95776.56;5044088;28;20306;-56
2022/04/06 10:40:18;;;;;;;3.42;3.22;;;;;;;20.94;41.64;95763.38;5045103;28;20208;-58
2022/04/06 10:42:45;;;;;;;3.30;3.10;;;;;;;21.36;39.32;95756.97;5047894;28;20223;-59
2022/04/06 10:45:35;;;;;;;3.92;3.67;;;;;;;21.55;39.10;95747.75;5047677;28;20655;-60
2022/04/06 10:48:14;;;;;;;3.70;3.50;;;;;;;21.17;39.72;95740.09;5047057;28;20200;-58
2022/04/06 10:50:42;;;;;;;4.00;3.70;;;;;;;21.41;40.11;95730.19;5045432;28;20234;-58
2022/04/06 10:53:29;;;;;;;3.70;3.40;;;;;;;20.92;41.85;95731.34;5044517;28;20191;-58
2022/04/06 10:56:06;;;;;;;3.80;3.50;;;;;;;20.89;42.67;95721.06;5044825;28;20199;-59
2022/04/06 10:59:09;;;;;;;3.70;3.40;;;;;;;20.78;43.14;95714.59;5044392;28;20586;-57
2022/04/06 11:01:44;;;;;;;3.50;3.30;;;;;;;20.54;43.49;95704.00;5027723;28;20268;-57
2022/04/06 11:04:17;;;;;;;3.60;3.30;;;;;;;20.94;44.72;95704.25;5044340;28;20214;-55
2022/04/06 11:06:55;;;;;;;3.95;3.65;;;;;;;20.94;41.91;95696.19;5044569;28;20203;-59
2022/04/06 11:12:11;;;;;;;3.45;3.17;;;;;;;21.12;41.10;95682.66;5045700;28;20547;-57
2022/04/06 11:14:39;;;;;;;2.78;2.58;;;;;;;21.16;38.91;95687.38;5044871;28;20591;-57
2022/04/06 11:17:37;;;;;;;2.78;2.58;;;;;;;21.30;38.51;95679.88;5048048;28;20218;-57
2022/04/06 11:20:06;;;;;;;2.70;2.50;;;;;;;21.14;39.11;95664.47;5046964;28;20608;-56
2022/04/06 11:22:32;;;;;;;2.67;2.42;;;;;;;20.96;38.36;95667.19;5045954;28;20528;-56
2022/04/06 11:24:59;;;;;;;2.53;2.33;;;;;;;21.08;38.61;95665.38;5046131;28;20199;-56
2022/04/06 11:27:27;;;;;;;3.35;2.50;;;;;;;21.09;39.74;95656.22;5045000;28;20220;-57
2022/04/06 11:29:59;;;;;;;2.60;2.40;;;;;;;21.25;39.22;95655.59;5046420;28;20269;-56
2022/04/06 11:32:28;;;;;;;2.20;2.10;;;;;;;21.02;37.27;95656.34;5046578;28;20282;-58
2022/04/06 11:35:01;;;;;;;2.30;2.20;;;;;;;20.90;38.73;95652.00;5048174;28;20208;-57
2022/04/06 11:37:28;;;;;;;2.20;2.00;;;;;;;21.00;37.30;95646.88;5045176;28;20775;-56
2022/04/06 11:40:00;;;;;;;2.08;1.92;;;;;;;21.44;37.30;95637.44;5046195;28;20216;-56
2022/04/06 11:42:28;;;;;;;2.10;2.00;;;;;;;21.24;37.41;95627.06;5045689;28;20234;-56
2022/04/06 11:44:54;;;;;;;2.50;2.40;;;;;;;21.94;38.94;95635.88;5045222;28;20218;-57
2022/04/06 11:47:28;;;;;;;2.60;2.40;;;;;;;21.78;36.76;95634.72;5046232;28;20199;-57
2022/04/06 11:49:55;;;;;;;3.05;2.75;;;;;;;22.11;36.12;95633.25;5045286;28;20212;-56
2022/04/06 11:52:23;;;;;;;2.35;2.15;;;;;;;21.95;36.04;95625.94;5045911;28;20203;-57
2022/04/06 11:54:53;;;;;;;2.17;1.83;;;;;;;21.77;36.68;95625.00;5045008;28;20295;-57